Albuquerque, NM

8:07 AM MDT on August 28, 2015 (GMT -0600)
UNM Area West | | Change Station
CLOSE
Current Station
Personal Weather Station
Location: Albuquerque, NM
Elevation: 5133 ft
Nearby Weather Stations

Elev 5133 ft 35.09 °N, 106.63 °W | Updated 8 minutes ago

Partly Cloudy
Partly Cloudy
66.6 °F
Feels Like 66.6 °F
N
0.0
Wind Variable Wind from WSW
Gusts 2.0 mph

Today
High -- | Low -- °F
--% Chance of Precip.
Yesterday
High -- | Low -- °F
Precip. -- in
6:36 AM 7:38 PM
Waxing Gibbous, 98% visible
Pressure 30.00 in
Visibility 10.0 miles
Clouds Few 15000 ft
Scattered Clouds 25000 ft
Dew Point 57 °F
Humidity 70%
Rainfall 0.00 in
Snow Depth Not available.
UV 1 out of 12
Pollen 6.90 out of 12
Air Quality Not available.
Flu Activity Not available.
METAR KABQ 281352Z 28004KT 10SM FEW150 SCT250 19/13 A3023 RMK AO2 SLP159 T01940128
Pressure 30.00 in
Visibility 10.0 miles
Clouds Few 15000 ft
Scattered Clouds 25000 ft
Dew Point 57 °F
Humidity 70%
Rainfall 0.00 in
Snow Depth Not available.
UV 1 out of 12
Pollen 6.90 out of 12
Air Quality Not available.
Flu Activity Not available.
METAR KABQ 281352Z 28004KT 10SM FEW150 SCT250 19/13 A3023 RMK AO2 SLP159 T01940128

10-Day Weather Forecast

×

Almanac

Astronomy

Aug. 28, 2015 Rise Set
Actual Time
Civil Twilight
Nautical Twilight
Astronomical Twilight
Moon
Length of Visible Light
Length of Day
Tomorrow will be .
, % of the Moon is Illuminated

Today's Extremes

State Highs State Lows

Community

WunderPhotos

Upload Photos

1,850,379 photos uploaded!

WunderBlogs® & News

Nearby

Air Quality

  Air Quality AQ Index Pollutant
Not available.

Snow Depth

Station Depth Elevation

Earthquake Activity

City Distance Mag. Time & Date
Minimum magnitude displayed is 2.5.

Coastal Water Temperatures

Place Temperature

Stations

Nearby Weather Stations

Station Location Temp. Windchill Dew Point Humidity Wind Precip. Elev Updated Type